Airfield :
LOGIN :

Register | Disclaimer

   EN    FR    IT 

 










Legend :    VFR   Marginal VFR   IFR   Intensive IFR   Very Intensive IFR
Visi :
Ceiling :
>= 8 km
>= 3000ft
5 to 8 km
1000 to 3000 ft
1500m to 5 km
500 to 1000 ft
800 to 1500m
200 to 500 ft
< 800m
< 200 ft
Symbols :   Thunderstorms  Fog  Heavy snow  Heavy precipitations  Wind > 20 kt
SIGMETs :     Misc.  Thunderstorms  Icing  Turbulence  Mountain Waves  Volcanic Ashes







- Airport Elevation : 7 ft
- IATA code : VCE


LIPZ - Marco Polo Int. Venezia

CURRENT METAR :
  • 242150Z 11004KT CAVOK 21/13 Q1016 NOSIG

EXPIRED METARs :
  • 242120Z 13004KT CAVOK 21/13 Q1016 NOSIG
  • 242050Z 14005KT CAVOK 21/13 Q1016 NOSIG
  • 242020Z 15004KT CAVOK 21/13 Q1016 NOSIG
  • 241950Z 15004KT 9999 FEW065 22/13 Q1016 NOSIG
  • 241920Z 15006KT 9999 FEW070 22/13 Q1016 NOSIG

TAF TAF LIPZ
Valid from the 24 at 18:00 until the 26 at 00:00 UTC


241700Z 2418/2524 15010KT 9999 SCT050
BECMG 2418/2421 04010KT
TEMPO 2419/2502 SHRA
TEMPO 2502/2510 TSRA
No reported NOTAMs for that airfield.
3 SIGMETs reported for the Milano FIR (LIMM) :
 
Embedded thunderstorms
LIMM SIGMET 4 VALID 242200/250200 LIIP
LIMM MILANO FIR EMBD TS FCST WI N4552 E00901 - N4517 E01108 - N4537 E01403 - N4633 E01343 - N4707 E01215 - N4650 E01025 - N4630 E00921 - N4552 E00901 TOP FL270 MOV S NC=
Severe turbulence
LIMM SIGMET 3 VALID 242200/250200 LIIP
LIMM MILANO FIR SEV TURB FCST W OF LINE N4653 E01052 - N4320 E01013 FL250/330 MOV E NC=
Severe turbulence
LIMM SIGMET 2 VALID 241900/242200 LIIP
LIMM MILANO FIR SEV TURB FCST W OF LINE N4631 E00941 - N4315 E00901 FL250/330 MOV E NC=



MET'MAP, your aeronautical weather chart ! - Copyright ORBIFLY December 2007 - Disclaimer

ORBIFLY MET'MAP TEAM :

Programming & Development : Alexandra Zaïnal
Concept & Development : Baudouin d'Aumeries
Co-Development & Prog : Marc-Olivier Méhu
Technical & hardware support : Manuel Goepfert

Contact : metmap@orbifly.com




SOURCES & CREDITS :

   NOAA